createdAt,value
2018-05-08T00:00:30.319Z,53.60
2018-05-08T00:02:59.204Z,53.90
2018-05-08T00:05:28.112Z,53.90
2018-05-08T00:07:57.007Z,54.10
2018-05-08T00:10:25.979Z,53.70
2018-05-08T00:12:54.857Z,52.90
2018-05-08T00:15:23.798Z,52.50
2018-05-08T00:17:53.522Z,51.60
2018-05-08T00:20:22.399Z,51.50
2018-05-08T00:22:51.264Z,51.90
2018-05-08T00:25:20.280Z,51.30
2018-05-08T00:27:49.122Z,51.00
2018-05-08T00:30:18.019Z,51.00
2018-05-08T00:32:46.880Z,51.00
2018-05-08T00:35:15.792Z,51.50
2018-05-08T00:37:44.690Z,51.50
2018-05-08T00:40:13.603Z,52.30
2018-05-08T00:42:42.568Z,52.20
2018-05-08T00:45:11.443Z,52.50
2018-05-08T00:47:40.451Z,52.50
2018-05-08T00:50:09.327Z,52.00
2018-05-08T00:52:38.195Z,52.00
2018-05-08T00:55:07.099Z,52.10
2018-05-08T00:57:35.977Z,52.40
2018-05-08T01:00:05.641Z,52.70
2018-05-08T01:02:34.535Z,52.70
2018-05-08T01:05:03.541Z,52.40
2018-05-08T01:07:32.313Z,52.40
2018-05-08T01:10:01.193Z,52.70
2018-05-08T01:12:30.153Z,53.00
2018-05-08T01:14:59.033Z,52.90
2018-05-08T01:17:27.971Z,52.70
2018-05-08T01:19:56.846Z,52.50
2018-05-08T01:22:25.755Z,52.90
2018-05-08T01:24:55.347Z,53.10
2018-05-08T01:27:24.233Z,52.70
2018-05-08T01:29:53.135Z,53.30
2018-05-08T01:32:22.024Z,53.80
2018-05-08T01:34:50.916Z,53.60
2018-05-08T01:37:19.825Z,53.30
2018-05-08T01:39:49.459Z,53.70
2018-05-08T01:42:18.403Z,53.50
2018-05-08T01:44:48.070Z,53.10
2018-05-08T01:47:17.053Z,53.10
2018-05-08T01:49:45.849Z,53.30
2018-05-08T01:52:14.733Z,52.90
2018-05-08T01:54:43.618Z,52.90
2018-05-08T01:57:12.541Z,52.60
2018-05-08T01:59:41.541Z,52.40
2018-05-08T02:02:10.399Z,52.30
2018-05-08T02:04:39.291Z,52.20
2018-05-08T02:07:08.186Z,52.10
2018-05-08T02:09:37.054Z,52.10
2018-05-08T02:12:05.954Z,51.90
2018-05-08T02:14:34.833Z,52.20
2018-05-08T02:17:03.734Z,52.00
2018-05-08T02:19:32.766Z,52.00
2018-05-08T02:22:01.641Z,52.10
2018-05-08T02:24:30.515Z,52.50
2018-05-08T02:26:59.411Z,52.50
2018-05-08T02:29:28.308Z,52.60
2018-05-08T02:31:57.212Z,52.80
2018-05-08T02:34:26.083Z,52.70
2018-05-08T02:36:54.983Z,53.20
2018-05-08T02:39:23.955Z,53.00
2018-05-08T02:41:52.837Z,53.10
2018-05-08T02:44:21.727Z,53.10
2018-05-08T02:46:50.619Z,53.10
2018-05-08T02:49:19.694Z,53.20
2018-05-08T02:51:48.588Z,53.50
2018-05-08T02:54:17.592Z,53.60
2018-05-08T02:56:46.455Z,53.70
2018-05-08T02:59:15.342Z,54.00
2018-05-08T03:01:44.292Z,53.90
2018-05-08T03:04:13.228Z,54.30
2018-05-08T03:06:42.139Z,54.30
2018-05-08T03:09:11.025Z,54.90
2018-05-08T03:11:39.920Z,54.80
2018-05-08T03:14:08.910Z,55.40
2018-05-08T03:16:37.783Z,55.50
2018-05-08T03:19:06.675Z,55.50
2018-05-08T03:21:35.596Z,56.00
2018-05-08T03:24:04.479Z,55.80
2018-05-08T03:26:33.373Z,55.90
2018-05-08T03:29:02.243Z,55.90
2018-05-08T03:31:31.259Z,56.20
2018-05-08T03:34:00.121Z,56.60
2018-05-08T03:36:29.022Z,56.60
2018-05-08T03:38:58.760Z,56.40
2018-05-08T03:41:27.659Z,56.50
2018-05-08T03:43:57.322Z,57.40
2018-05-08T03:46:26.207Z,57.20
2018-05-08T03:48:55.123Z,57.60
2018-05-08T03:51:23.987Z,57.80
2018-05-08T03:53:52.932Z,57.80
2018-05-08T03:56:22.683Z,57.90
2018-05-08T03:58:52.609Z,57.80
2018-05-08T04:01:33.495Z,58.20
2018-05-08T04:04:14.275Z,58.00
2018-05-08T04:07:03.908Z,58.90
2018-05-08T04:09:32.816Z,58.30
2018-05-08T04:12:01.713Z,58.60
2018-05-08T04:14:30.663Z,59.00
2018-05-08T04:16:59.568Z,58.90
2018-05-08T04:19:28.549Z,59.80
2018-05-08T04:21:57.440Z,59.30
2018-05-08T04:24:26.318Z,59.30
2018-05-08T04:26:56.271Z,59.10
2018-05-08T04:29:25.151Z,59.00
2018-05-08T04:31:54.055Z,59.20
2018-05-08T04:34:22.914Z,59.40
2018-05-08T04:36:51.826Z,59.40
2018-05-08T04:39:20.826Z,59.00
2018-05-08T04:41:50.541Z,59.70
2018-05-08T04:44:20.267Z,59.20
2018-05-08T04:46:50.015Z,58.70
2018-05-08T04:49:18.925Z,58.60
2018-05-08T04:51:47.937Z,58.70
2018-05-08T04:54:16.834Z,58.50
2018-05-08T04:56:46.501Z,59.00
2018-05-08T04:59:15.414Z,58.60
2018-05-08T05:01:44.340Z,58.10
2018-05-08T05:04:14.114Z,56.90
2018-05-08T05:06:42.996Z,56.90
2018-05-08T05:09:12.011Z,56.20
2018-05-08T05:11:41.675Z,56.50
2018-05-08T05:14:10.606Z,55.80
2018-05-08T05:16:40.356Z,55.30
2018-05-08T05:19:09.217Z,55.40
2018-05-08T05:21:38.139Z,55.40
2018-05-08T05:24:07.175Z,55.10
2018-05-08T05:26:36.875Z,54.40
2018-05-08T05:29:05.791Z,54.40
2018-05-08T05:31:34.901Z,53.60
2018-05-08T05:34:03.867Z,54.00
2018-05-08T05:36:32.759Z,53.10
2018-05-08T05:39:01.708Z,52.50
2018-05-08T05:41:30.599Z,52.30
2018-05-08T05:43:59.493Z,51.70
2018-05-08T05:46:28.426Z,51.60
2018-05-08T05:48:57.536Z,51.50
2018-05-08T05:51:27.222Z,50.80
2018-05-08T05:53:56.898Z,50.40
2018-05-08T05:56:25.965Z,50.40
2018-05-08T05:58:54.873Z,49.70
2018-05-08T06:01:24.568Z,49.10
2018-05-08T06:03:53.515Z,49.10
2018-05-08T06:06:22.433Z,48.80
2018-05-08T06:08:52.181Z,48.30
2018-05-08T06:11:21.092Z,48.70
2018-05-08T06:13:50.081Z,48.20
2018-05-08T06:16:18.963Z,48.00
2018-05-08T06:18:47.983Z,47.80
2018-05-08T06:21:16.937Z,47.90
2018-05-08T06:23:45.808Z,47.30
2018-05-08T06:26:14.671Z,47.20
2018-05-08T06:28:44.318Z,46.50
2018-05-08T06:31:13.207Z,47.20
2018-05-08T06:33:42.095Z,46.90
2018-05-08T06:36:10.971Z,46.70
2018-05-08T06:38:39.865Z,46.20
2018-05-08T06:41:08.761Z,46.20
2018-05-08T06:43:37.640Z,45.90
2018-05-08T06:46:06.522Z,45.60
2018-05-08T06:48:35.428Z,45.70
2018-05-08T06:51:04.323Z,45.60
2018-05-08T06:53:33.294Z,45.70
2018-05-08T06:56:02.188Z,45.60
2018-05-08T06:58:31.073Z,45.20
2018-05-08T07:00:59.953Z,45.40
2018-05-08T07:03:28.858Z,45.30
2018-05-08T07:05:57.770Z,45.90
2018-05-08T07:08:26.683Z,45.30
2018-05-08T07:10:55.638Z,44.70
2018-05-08T07:13:24.507Z,44.80
2018-05-08T07:15:53.514Z,44.70
2018-05-08T07:18:22.283Z,44.80
2018-05-08T07:20:51.296Z,44.70
2018-05-08T07:23:20.191Z,44.70
2018-05-08T07:25:49.059Z,44.40
2018-05-08T07:28:17.973Z,44.80
2018-05-08T07:30:46.910Z,45.20
2018-05-08T07:33:15.776Z,44.60
2018-05-08T07:35:44.656Z,44.70
2018-05-08T07:38:13.641Z,44.10
2018-05-08T07:40:42.503Z,44.10
2018-05-08T07:43:11.594Z,44.50
2018-05-08T07:45:40.541Z,43.80
2018-05-08T07:48:09.479Z,43.50
2018-05-08T07:50:38.400Z,43.40
2018-05-08T07:53:07.382Z,43.10
2018-05-08T07:55:36.355Z,43.20
2018-05-08T07:58:05.238Z,43.60
2018-05-08T08:00:34.164Z,43.50
2018-05-08T08:03:03.134Z,44.80
2018-05-08T08:05:32.003Z,44.30
2018-05-08T08:08:00.887Z,43.30
2018-05-08T08:10:29.774Z,43.20
2018-05-08T08:12:58.661Z,43.40
2018-05-08T08:15:27.577Z,43.70
2018-05-08T08:17:56.560Z,43.10
2018-05-08T08:20:25.466Z,43.30
2018-05-08T08:22:54.342Z,43.30
2018-05-08T08:25:23.958Z,42.90
2018-05-08T08:27:52.862Z,43.50
2018-05-08T08:30:28.523Z,42.30
2018-05-08T08:33:18.007Z,42.30
2018-05-08T08:35:55.779Z,42.00
2018-05-08T08:38:55.584Z,42.10
2018-05-08T08:41:36.893Z,41.70
2018-05-08T08:44:07.377Z,40.80
2018-05-08T08:46:36.275Z,40.80
2018-05-08T08:49:05.152Z,41.20
2018-05-08T08:51:34.076Z,41.10
2018-05-08T08:54:02.952Z,40.20
2018-05-08T08:56:31.844Z,40.30
2018-05-08T08:59:00.752Z,40.00
2018-05-08T09:01:29.631Z,40.80
2018-05-08T09:04:00.063Z,39.70
2018-05-08T09:06:28.919Z,39.70
2018-05-08T09:08:57.844Z,39.60
2018-05-08T09:11:26.728Z,38.70
2018-05-08T09:13:55.701Z,38.50
2018-05-08T09:16:27.693Z,38.20
2018-05-08T09:18:56.583Z,38.00
2018-05-08T09:21:25.517Z,37.80
2018-05-08T09:23:55.787Z,38.40
2018-05-08T09:26:30.778Z,37.80
2018-05-08T09:29:03.069Z,37.90
2018-05-08T09:31:32.991Z,36.60
2018-05-08T09:34:02.769Z,36.50
2018-05-08T09:36:31.705Z,37.00
2018-05-08T09:39:00.596Z,37.20
2018-05-08T09:41:29.584Z,36.30
2018-05-08T09:43:58.505Z,35.70
2018-05-08T09:46:29.123Z,35.00
2018-05-08T09:48:58.868Z,35.80
2018-05-08T09:51:27.726Z,35.60
2018-05-08T09:53:57.373Z,34.20
2018-05-08T10:00:03.643Z,34.50
2018-05-08T10:05:39.421Z,33.30
2018-05-08T10:08:19.597Z,32.70
2018-05-08T10:10:55.687Z,33.40
2018-05-08T10:13:26.537Z,31.90
2018-05-08T10:15:55.656Z,32.40
2018-05-08T10:18:24.524Z,32.90
2018-05-08T10:20:54.162Z,30.60
2018-05-08T10:23:23.057Z,30.50
2018-05-08T10:25:51.913Z,30.20
2018-05-08T10:28:20.823Z,30.90
2018-05-08T10:30:49.710Z,30.60
2018-05-08T10:33:18.588Z,30.00
2018-05-08T10:35:47.511Z,29.70
2018-05-08T10:38:16.382Z,29.40
2018-05-08T10:40:45.255Z,29.30
2018-05-08T10:43:14.146Z,28.70
2018-05-08T10:45:43.019Z,28.60
2018-05-08T10:48:11.927Z,28.80
2018-05-08T10:50:40.806Z,27.90
2018-05-08T10:53:09.781Z,27.80
2018-05-08T10:55:38.710Z,28.20
2018-05-08T10:58:07.525Z,28.10
2018-05-08T11:00:36.407Z,28.50
2018-05-08T11:03:05.366Z,28.00
2018-05-08T11:05:34.300Z,27.20
2018-05-08T11:08:03.170Z,27.00
2018-05-08T11:10:32.063Z,26.90
2018-05-08T11:13:00.954Z,27.00
2018-05-08T11:15:29.847Z,27.10
2018-05-08T11:17:58.757Z,26.80
2018-05-08T11:20:27.614Z,26.70
2018-05-08T11:22:56.489Z,27.00
2018-05-08T11:25:25.396Z,27.30
2018-05-08T11:27:54.259Z,26.70
2018-05-08T11:30:23.163Z,25.70
2018-05-08T11:32:52.043Z,25.60
2018-05-08T11:35:20.921Z,24.90
2018-05-08T11:37:49.936Z,25.70
2018-05-08T11:40:18.829Z,26.20
2018-05-08T11:42:47.791Z,26.20
2018-05-08T11:45:16.710Z,27.60
2018-05-08T11:47:45.574Z,26.70
2018-05-08T11:50:14.490Z,27.30
2018-05-08T11:52:43.356Z,26.40
2018-05-08T11:55:12.276Z,26.30
2018-05-08T11:57:41.155Z,26.10
2018-05-08T12:00:10.053Z,26.60
2018-05-08T12:02:38.964Z,26.60
2018-05-08T12:05:07.837Z,26.30
2018-05-08T12:07:36.744Z,26.60
2018-05-08T12:10:05.625Z,26.20
2018-05-08T12:12:34.527Z,25.90
2018-05-08T12:15:03.467Z,25.80
2018-05-08T12:17:32.353Z,25.60
2018-05-08T12:20:01.260Z,25.60
2018-05-08T12:22:30.955Z,25.30
2018-05-08T12:24:59.864Z,25.30
2018-05-08T12:27:31.172Z,25.00
2018-05-08T12:30:00.083Z,25.10
2018-05-08T12:32:28.951Z,24.90
2018-05-08T12:34:57.828Z,25.00
2018-05-08T12:37:27.499Z,24.70
2018-05-08T12:39:56.380Z,24.70
2018-05-08T12:42:25.285Z,24.80
2018-05-08T12:44:54.178Z,25.40
2018-05-08T12:47:23.070Z,24.40
2018-05-08T12:49:51.991Z,24.50
2018-05-08T12:52:21.676Z,23.70
2018-05-08T12:54:50.608Z,23.70
2018-05-08T12:57:19.476Z,24.00
2018-05-08T12:59:48.358Z,24.00
2018-05-08T13:02:18.024Z,24.60
2018-05-08T13:04:46.913Z,24.60
2018-05-08T13:07:15.827Z,24.70
2018-05-08T13:09:46.228Z,24.80
2018-05-08T13:12:15.128Z,24.80
2018-05-08T13:14:45.536Z,23.90
2018-05-08T13:17:14.435Z,23.90
2018-05-08T13:19:43.338Z,23.60
2018-05-08T13:22:12.306Z,23.80
2018-05-08T13:24:41.283Z,23.40
2018-05-08T13:27:10.200Z,24.30
2018-05-08T13:29:39.056Z,23.70
2018-05-08T13:32:07.988Z,23.40
2018-05-08T13:34:36.917Z,24.00
2018-05-08T13:37:06.542Z,23.20
2018-05-08T13:39:35.433Z,23.20
2018-05-08T13:42:04.405Z,23.80
2018-05-08T13:44:33.241Z,23.70
2018-05-08T13:47:02.124Z,22.90
2018-05-08T13:49:31.030Z,22.80
2018-05-08T13:52:00.022Z,23.10
2018-05-08T13:54:29.003Z,23.10
2018-05-08T13:56:57.998Z,22.70
2018-05-08T13:59:26.971Z,22.90
2018-05-08T14:01:55.868Z,22.40
2018-05-08T14:04:24.769Z,22.30
2018-05-08T14:06:53.694Z,22.80
2018-05-08T14:09:23.415Z,23.00
2018-05-08T14:11:52.344Z,22.80
2018-05-08T14:14:21.254Z,22.60
2018-05-08T14:16:50.209Z,22.40
2018-05-08T14:19:19.227Z,22.50
2018-05-08T14:21:48.208Z,22.40
2018-05-08T14:24:17.188Z,22.80
2018-05-08T14:26:46.060Z,22.40
2018-05-08T14:29:14.968Z,21.90
2018-05-08T14:31:43.919Z,22.00
2018-05-08T14:34:12.776Z,21.90
2018-05-08T14:36:41.743Z,21.50
2018-05-08T14:39:10.575Z,20.70
2018-05-08T14:41:39.468Z,20.40
2018-05-08T14:44:08.398Z,19.70
2018-05-08T14:46:37.438Z,19.40
2018-05-08T14:49:06.550Z,19.00
2018-05-08T14:51:36.217Z,18.00
2018-05-08T14:54:10.093Z,17.90
2018-05-08T14:56:43.673Z,17.50
2018-05-08T14:59:14.427Z,17.80
2018-05-08T15:01:43.368Z,17.40
2018-05-08T15:04:12.318Z,16.80
2018-05-08T15:06:41.156Z,16.80
2018-05-08T15:09:10.039Z,17.00
2018-05-08T15:11:38.995Z,17.50
2018-05-08T15:14:08.613Z,17.40
2018-05-08T15:16:37.476Z,17.40
2018-05-08T15:19:06.479Z,17.50
2018-05-08T15:21:35.372Z,17.40
2018-05-08T15:24:04.239Z,17.30
2018-05-08T15:26:33.132Z,16.70
2018-05-08T15:29:02.088Z,17.30
2018-05-08T15:31:30.941Z,16.70
2018-05-08T15:33:59.820Z,16.40
2018-05-08T15:36:28.833Z,16.50
2018-05-08T15:38:57.737Z,16.50
2018-05-08T15:41:26.616Z,16.70
2018-05-08T15:43:55.528Z,16.30
2018-05-08T15:46:25.778Z,16.60
2018-05-08T15:48:54.700Z,16.60
2018-05-08T15:51:23.600Z,16.30
2018-05-08T15:53:52.499Z,16.70
2018-05-08T15:56:21.387Z,16.40
2018-05-08T15:58:50.378Z,16.90
2018-05-08T16:01:19.280Z,17.00
2018-05-08T16:03:48.136Z,16.90
2018-05-08T16:06:17.027Z,17.10
2018-05-08T16:08:45.904Z,17.60
2018-05-08T16:11:14.810Z,17.10
2018-05-08T16:13:43.738Z,17.40
2018-05-08T16:16:13.369Z,17.60
2018-05-08T16:18:42.289Z,17.60
2018-05-08T16:21:11.177Z,17.80
2018-05-08T16:23:40.060Z,18.40
2018-05-08T16:26:08.978Z,19.00
2018-05-08T16:28:39.379Z,20.70
2018-05-08T16:31:08.285Z,20.70
2018-05-08T16:33:37.203Z,22.10
2018-05-08T16:36:06.263Z,22.80
2018-05-08T16:38:35.149Z,23.30
2018-05-08T16:41:04.020Z,24.00
2018-05-08T16:43:32.927Z,24.50
2018-05-08T16:46:01.833Z,25.10
2018-05-08T16:48:31.006Z,25.50
2018-05-08T16:50:59.791Z,26.00
2018-05-08T16:53:28.712Z,26.50
2018-05-08T16:55:57.576Z,26.90
2018-05-08T16:58:26.572Z,27.50
2018-05-08T17:00:55.444Z,27.90
2018-05-08T17:03:24.377Z,28.10
2018-05-08T17:05:53.251Z,28.00
2018-05-08T17:08:22.148Z,27.90
2018-05-08T17:10:51.055Z,28.10
2018-05-08T17:13:21.642Z,28.90
2018-05-08T17:15:51.473Z,29.00
2018-05-08T17:18:20.366Z,29.00
2018-05-08T17:20:49.227Z,29.20
2018-05-08T17:23:18.136Z,29.40
2018-05-08T17:25:47.034Z,29.70
2018-05-08T17:28:15.912Z,29.90
2018-05-08T17:30:44.824Z,30.00
2018-05-08T17:33:13.766Z,30.00
2018-05-08T17:35:43.373Z,30.40
2018-05-08T17:38:12.266Z,30.40
2018-05-08T17:40:41.167Z,30.10
2018-05-08T17:43:10.135Z,30.50
2018-05-08T17:45:39.016Z,30.80
2018-05-08T17:48:07.901Z,31.10
2018-05-08T17:50:36.832Z,31.70
2018-05-08T17:53:05.819Z,32.40
2018-05-08T17:55:35.048Z,33.30
2018-05-08T17:58:04.243Z,33.60
2018-05-08T18:00:33.146Z,34.40
2018-05-08T18:03:02.807Z,34.20
2018-05-08T18:05:31.703Z,34.20
2018-05-08T18:08:00.611Z,34.50
2018-05-08T18:10:29.525Z,34.70
2018-05-08T18:12:58.471Z,35.00
2018-05-08T18:15:27.426Z,35.10
2018-05-08T18:17:57.099Z,35.50
2018-05-08T18:20:26.040Z,35.50
2018-05-08T18:22:54.961Z,35.60
2018-05-08T18:25:24.615Z,35.60
2018-05-08T18:27:54.357Z,35.90
2018-05-08T18:30:23.356Z,35.80
2018-05-08T18:32:52.297Z,36.20
2018-05-08T18:35:21.200Z,37.00
2018-05-08T18:37:50.870Z,38.60
2018-05-08T18:40:19.811Z,38.40
2018-05-08T18:42:48.698Z,38.80
2018-05-08T18:45:18.354Z,39.30
2018-05-08T18:47:47.332Z,39.30
2018-05-08T18:50:16.328Z,39.60
2018-05-08T18:52:45.315Z,40.00
2018-05-08T18:55:14.211Z,40.10
2018-05-08T18:57:43.119Z,40.50
2018-05-08T19:00:17.584Z,40.60
2018-05-08T19:02:46.511Z,40.60
2018-05-08T19:05:15.426Z,40.80
2018-05-08T19:07:45.850Z,41.20
2018-05-08T19:10:14.745Z,41.10
2018-05-08T19:12:43.675Z,41.20
2018-05-08T19:15:18.110Z,41.10
2018-05-08T19:17:47.019Z,41.50
2018-05-08T19:20:15.958Z,41.20
2018-05-08T19:22:45.615Z,42.10
2018-05-08T19:25:14.538Z,42.10
2018-05-08T19:27:44.974Z,42.40
2018-05-08T19:30:20.270Z,43.10
2018-05-08T19:32:49.214Z,43.00
2018-05-08T19:35:24.731Z,43.40
2018-05-08T19:38:00.705Z,43.30
2018-05-08T19:40:30.520Z,42.80
2018-05-08T19:43:00.282Z,43.10
2018-05-08T19:45:29.207Z,43.10
2018-05-08T19:47:58.892Z,43.80
2018-05-08T19:50:28.052Z,43.80
2018-05-08T19:52:56.973Z,43.60
2018-05-08T19:55:25.865Z,43.70
2018-05-08T19:57:55.942Z,44.20
2018-05-08T20:00:24.816Z,44.20
2018-05-08T20:02:53.773Z,44.40
2018-05-08T20:05:23.662Z,44.70
2018-05-08T20:07:52.556Z,44.90
2018-05-08T20:10:21.501Z,44.90
2018-05-08T20:12:50.711Z,45.00
2018-05-08T20:15:19.824Z,45.10
2018-05-08T20:17:48.727Z,45.70
2018-05-08T20:20:17.821Z,45.20
2018-05-08T20:22:47.622Z,46.20
2018-05-08T20:25:16.492Z,45.50
2018-05-08T20:27:45.366Z,45.80
2018-05-08T20:30:14.311Z,45.90
2018-05-08T20:32:44.686Z,46.20
2018-05-08T20:35:13.660Z,46.10
2018-05-08T20:37:42.562Z,46.10
2018-05-08T20:40:11.485Z,46.30
2018-05-08T20:42:40.358Z,46.60
2018-05-08T20:45:09.278Z,46.40
2018-05-08T20:47:38.221Z,46.80
2018-05-08T20:50:07.160Z,46.80
2018-05-08T20:52:36.091Z,46.90
2018-05-08T20:55:04.970Z,47.30
2018-05-08T20:57:33.850Z,47.40
2018-05-08T21:00:03.525Z,47.50
2018-05-08T21:02:32.480Z,47.50
2018-05-08T21:05:01.424Z,47.60
2018-05-08T21:07:30.332Z,48.20
2018-05-08T21:09:59.995Z,48.30
2018-05-08T21:12:28.970Z,48.30
2018-05-08T21:14:57.975Z,48.70
2018-05-08T21:17:26.873Z,48.80
2018-05-08T21:19:55.758Z,48.70
2018-05-08T21:22:24.673Z,49.00
2018-05-08T21:24:53.558Z,49.20
2018-05-08T21:27:23.285Z,50.40
2018-05-08T21:29:58.688Z,50.50
2018-05-08T21:32:27.647Z,50.50
2018-05-08T21:34:56.553Z,50.40
2018-05-08T21:37:25.442Z,50.90
2018-05-08T21:39:54.344Z,51.10
2018-05-08T21:42:23.237Z,51.30
2018-05-08T21:44:52.102Z,51.00
2018-05-08T21:47:20.993Z,50.70
2018-05-08T21:49:49.884Z,51.00
2018-05-08T21:52:18.787Z,50.90
2018-05-08T21:54:47.679Z,52.20
2018-05-08T21:57:16.611Z,51.90
2018-05-08T21:59:46.286Z,52.70
2018-05-08T22:02:15.150Z,52.70
2018-05-08T22:04:44.052Z,52.70
2018-05-08T22:07:13.011Z,53.00
2018-05-08T22:09:41.902Z,52.80
2018-05-08T22:12:10.789Z,52.80
2018-05-08T22:14:39.791Z,52.70
2018-05-08T22:17:08.670Z,52.60
2018-05-08T22:19:37.591Z,52.70
2018-05-08T22:22:06.498Z,52.60
2018-05-08T22:24:37.140Z,53.10
2018-05-08T22:27:06.889Z,53.00
2018-05-08T22:29:35.756Z,52.70
2018-05-08T22:32:04.629Z,52.40
2018-05-08T22:34:34.403Z,52.10
2018-05-08T22:37:03.268Z,52.10
2018-05-08T22:39:32.180Z,52.30
2018-05-08T22:42:01.065Z,51.90
2018-05-08T22:44:29.964Z,51.70
2018-05-08T22:47:00.461Z,50.80
2018-05-08T22:49:29.350Z,50.70
2018-05-08T22:51:58.236Z,50.60
2018-05-08T22:54:27.115Z,50.10
2018-05-08T22:56:56.006Z,50.20
2018-05-08T22:59:25.651Z,50.00
2018-05-08T23:01:54.527Z,50.00
2018-05-08T23:04:23.436Z,49.80
2018-05-08T23:06:52.427Z,50.00
2018-05-08T23:09:21.386Z,49.80
2018-05-08T23:11:51.848Z,49.90
2018-05-08T23:14:21.395Z,50.00
2018-05-08T23:16:51.117Z,50.10
2018-05-08T23:19:20.083Z,50.10
2018-05-08T23:21:49.708Z,50.10
2018-05-08T23:24:18.707Z,50.10
2018-05-08T23:26:47.636Z,49.90
2018-05-08T23:29:16.551Z,50.40
2018-05-08T23:31:46.308Z,50.50
2018-05-08T23:34:15.249Z,50.30
2018-05-08T23:36:44.133Z,50.90
2018-05-08T23:39:13.012Z,50.60
2018-05-08T23:41:41.930Z,50.90
2018-05-08T23:44:11.636Z,51.50
2018-05-08T23:46:40.645Z,50.90
2018-05-08T23:49:09.524Z,50.90
2018-05-08T23:51:38.581Z,51.40
2018-05-08T23:54:07.494Z,51.60
2018-05-08T23:56:36.515Z,52.30
2018-05-08T23:59:05.479Z,52.50
